KOPL/OPL METAR and TAF weather

Enter ICAO airport designator
Station Type Date Time Source
KOPL METAR 2019/02/23 00:15 UTC NOAA

KOPL 230015Z AUTO 16010G14KT 10SM OVC011 23/22 A2994 RMK AO2 P0001 T02250215


Station Type Date Time Source
KOPL Decoded METAR 2019/02/23 00:15 UTC NOAA

Station name not available
Feb 22, 2019 - 07:15 PM EST / 2019.02.23 0015 UTC
Wind: from the SSE (160 degrees) at 12 MPH (10 KT) gusting to 16 MPH (14 KT):0
Visibility: 10 mile(s):0
Sky conditions: overcast
Precipitation last hour: 0.01 inches
Temperature: 72.5 F (22.5 C)
Dew Point: 70.7 F (21.5 C)
Relative Humidity: 94%
Pressure (altimeter): 29.94 in. Hg (1013 hPa)
ob: KOPL 230015Z AUTO 16010G14KT 10SM OVC011 23/22 A2994 RMK AO2 P0001 T02250215
cycle: 0

Station Type Date Time Source
KOPL TAF UTC NOAA

Error!


Example: see airport list